createdAt,value
2023-04-27T00:02:41.409Z,100
2023-04-27T00:07:41.404Z,100
2023-04-27T00:12:41.414Z,100
2023-04-27T00:17:41.366Z,100
2023-04-27T00:22:41.348Z,100
2023-04-27T00:27:41.316Z,100
2023-04-27T00:32:41.298Z,100
2023-04-27T00:37:41.280Z,100
2023-04-27T00:42:41.311Z,100
2023-04-27T00:47:41.237Z,100
2023-04-27T00:52:41.210Z,100
2023-04-27T00:57:41.195Z,100
2023-04-27T01:02:41.179Z,100
2023-04-27T01:07:41.172Z,100
2023-04-27T01:12:41.141Z,100
2023-04-27T01:17:41.115Z,100
2023-04-27T01:22:41.147Z,100
2023-04-27T01:27:41.083Z,100
2023-04-27T01:32:41.058Z,100
2023-04-27T01:37:41.035Z,100
2023-04-27T01:42:41.041Z,100
2023-04-27T01:47:41.000Z,100
2023-04-27T01:52:41.062Z,100
2023-04-27T01:57:40.968Z,100
2023-04-27T02:02:40.953Z,100
2023-04-27T02:07:40.925Z,100
2023-04-27T02:12:40.914Z,100
2023-04-27T02:17:40.892Z,100
2023-04-27T02:22:40.872Z,100
2023-04-27T02:27:40.847Z,100
2023-04-27T02:32:40.839Z,100
2023-04-27T02:37:40.832Z,100
2023-04-27T02:42:40.785Z,100
2023-04-27T02:47:40.772Z,100
2023-04-27T02:52:40.757Z,100
2023-04-27T02:57:40.729Z,100
2023-04-27T03:02:40.706Z,100
2023-04-27T03:07:40.681Z,100
2023-04-27T03:12:40.677Z,100
2023-04-27T03:17:40.656Z,100
2023-04-27T03:22:40.632Z,100
2023-04-27T03:27:40.631Z,100
2023-04-27T03:32:40.638Z,100
2023-04-27T03:37:40.615Z,100
2023-04-27T03:42:40.592Z,100
2023-04-27T03:47:40.578Z,100
2023-04-27T03:57:40.518Z,100
2023-04-27T04:02:40.474Z,100
2023-04-27T04:07:40.503Z,100
2023-04-27T04:12:40.493Z,100
2023-04-27T04:17:40.459Z,100
2023-04-27T04:22:40.435Z,100
2023-04-27T04:27:40.419Z,100
2023-04-27T04:32:40.371Z,100
2023-04-27T04:37:40.366Z,0.5
2023-04-27T04:42:40.335Z,0.5
2023-04-27T04:47:40.311Z,0.5
2023-04-27T04:52:40.287Z,0.5
2023-04-27T04:57:40.287Z,0
2023-04-27T05:02:40.289Z,0
2023-04-27T05:07:40.254Z,0
2023-04-27T05:12:40.264Z,0
2023-04-27T05:22:40.209Z,0
2023-04-27T05:27:40.226Z,0.5
2023-04-27T05:32:40.144Z,0
2023-04-27T05:37:40.146Z,0
2023-04-27T05:42:40.142Z,0
2023-04-27T05:47:40.132Z,0.5
2023-04-27T05:57:40.073Z,0
2023-04-27T06:02:40.099Z,0
2023-04-27T06:07:40.082Z,0.5
2023-04-27T06:12:40.049Z,0.5
2023-04-27T06:17:39.996Z,0
2023-04-27T06:22:39.968Z,1
2023-04-27T06:27:40.056Z,0.5
2023-04-27T06:37:39.953Z,0.5
2023-04-27T06:42:39.896Z,0
2023-04-27T06:47:39.872Z,0.5
2023-04-27T06:52:39.857Z,0.5
2023-04-27T07:02:39.808Z,0
2023-04-27T07:07:46.857Z,0.5
2023-04-27T07:12:39.746Z,0.5
2023-04-27T07:17:46.769Z,0
2023-04-27T07:22:46.732Z,0
2023-04-27T07:27:46.729Z,0.5
2023-04-27T07:32:39.710Z,0
2023-04-27T07:37:39.787Z,0
2023-04-27T07:42:39.688Z,0
2023-04-27T07:47:39.684Z,0
2023-04-27T07:52:39.583Z,0
2023-04-27T07:57:39.691Z,0
2023-04-27T08:02:39.641Z,0
2023-04-27T08:07:39.610Z,0
2023-04-27T08:12:39.563Z,0
2023-04-27T08:17:39.505Z,0
2023-04-27T08:22:39.496Z,0
2023-04-27T08:27:46.463Z,0
2023-04-27T08:32:39.439Z,0
2023-04-27T08:37:39.462Z,0
2023-04-27T08:42:39.463Z,0
2023-04-27T08:47:39.363Z,0
2023-04-27T08:52:39.351Z,0
2023-04-27T09:07:39.475Z,85
2023-04-27T09:12:39.392Z,71.5
2023-04-27T09:17:39.391Z,66
2023-04-27T09:22:39.232Z,57.5
2023-04-27T09:27:39.354Z,53.5
2023-04-27T09:32:39.244Z,52
2023-04-27T09:37:39.240Z,49
2023-04-27T09:42:46.220Z,53.5
2023-04-27T09:47:39.148Z,57.5
2023-04-27T09:52:39.123Z,54
2023-04-27T09:57:46.079Z,56
2023-04-27T10:02:39.052Z,56.5
2023-04-27T10:07:39.121Z,54.5
2023-04-27T10:12:39.022Z,57.5
2023-04-27T10:22:38.936Z,55
2023-04-27T10:27:38.919Z,59.5
2023-04-27T10:32:39.033Z,56.5
2023-04-27T10:37:38.865Z,58
2023-04-27T10:42:38.891Z,60
2023-04-27T10:47:38.835Z,57.5
2023-04-27T10:52:38.898Z,56.5
2023-04-27T10:57:38.792Z,55
2023-04-27T11:02:38.811Z,57
2023-04-27T11:07:38.757Z,56.5
2023-04-27T11:12:38.732Z,56.5
2023-04-27T11:17:38.698Z,56.5
2023-04-27T11:22:38.755Z,60
2023-04-27T11:27:38.733Z,57
2023-04-27T11:32:38.668Z,56
2023-04-27T11:37:38.616Z,55
2023-04-27T11:42:38.688Z,42.5
2023-04-27T11:47:38.653Z,41.5
2023-04-27T11:52:38.558Z,39
2023-04-27T11:57:38.592Z,35.5
2023-04-27T12:02:38.529Z,34
2023-04-27T12:07:38.510Z,33
2023-04-27T12:12:38.612Z,33
2023-04-27T12:17:38.513Z,35
2023-04-27T12:22:38.444Z,38
2023-04-27T12:27:38.439Z,35.5
2023-04-27T12:32:38.489Z,32.5
2023-04-27T12:37:38.382Z,35
2023-04-27T12:42:38.369Z,32.5
2023-04-27T12:47:38.424Z,31
2023-04-27T12:52:38.347Z,30.5
2023-04-27T12:57:38.355Z,35.5
2023-04-27T13:02:38.300Z,31
2023-04-27T13:07:38.277Z,33
2023-04-27T13:12:38.317Z,39
2023-04-27T13:17:38.253Z,37.5
2023-04-27T13:22:38.224Z,43
2023-04-27T13:27:38.189Z,44
2023-04-27T13:32:38.182Z,45.5
2023-04-27T13:37:38.178Z,48
2023-04-27T13:42:38.126Z,54.5
2023-04-27T13:47:38.107Z,68.5
2023-04-27T13:52:38.238Z,59
2023-04-27T13:57:38.074Z,58.5
2023-04-27T14:02:38.169Z,56.5
2023-04-27T14:07:38.115Z,55.5
2023-04-27T14:12:38.116Z,56
2023-04-27T14:17:38.030Z,53.5
2023-04-27T14:22:37.958Z,52.5
2023-04-27T14:27:37.957Z,55
2023-04-27T14:32:37.916Z,55
2023-04-27T14:37:37.912Z,54
2023-04-27T14:42:37.867Z,55
2023-04-27T14:47:37.869Z,55
2023-04-27T14:52:37.830Z,58.5
2023-04-27T14:57:37.812Z,60.5
2023-04-27T15:02:37.791Z,58
2023-04-27T15:07:37.776Z,58
2023-04-27T15:12:37.747Z,58.5
2023-04-27T15:17:37.715Z,58
2023-04-27T15:22:37.699Z,56.5
2023-04-27T15:27:37.738Z,58
2023-04-27T15:32:37.663Z,59
2023-04-27T15:37:37.654Z,61
2023-04-27T15:42:37.614Z,62.5
2023-04-27T15:47:37.591Z,61
2023-04-27T15:52:37.576Z,60.5
2023-04-27T15:57:37.570Z,58.5
2023-04-27T16:02:37.529Z,61
2023-04-27T16:07:37.517Z,62.5
2023-04-27T16:12:37.491Z,61.5
2023-04-27T16:17:37.623Z,62.5
2023-04-27T16:22:37.443Z,62.5
2023-04-27T16:27:37.416Z,64.5
2023-04-27T16:32:37.407Z,64
2023-04-27T16:37:37.379Z,64
2023-04-27T16:42:37.365Z,66
2023-04-27T16:47:37.339Z,65.5
2023-04-27T16:52:37.315Z,67.5
2023-04-27T16:57:37.294Z,68
2023-04-27T17:02:37.269Z,68.5
2023-04-27T17:07:37.268Z,71.5
2023-04-27T17:12:37.315Z,71.5
2023-04-27T17:17:37.208Z,70.5
2023-04-27T17:22:37.193Z,71
2023-04-27T17:27:37.172Z,69.5
2023-04-27T17:32:37.147Z,71
2023-04-27T17:37:37.134Z,68.5
2023-04-27T17:42:37.106Z,68
2023-04-27T17:47:37.086Z,70
2023-04-27T17:52:37.118Z,71
2023-04-27T17:57:37.123Z,72
2023-04-27T18:02:37.066Z,72.5
2023-04-27T18:07:37.001Z,70.5
2023-04-27T18:12:36.972Z,73.5
2023-04-27T18:17:36.985Z,73.5
2023-04-27T18:22:36.960Z,77
2023-04-27T18:27:36.930Z,82.5
2023-04-27T18:32:36.902Z,80
2023-04-27T18:37:36.884Z,80
2023-04-27T18:42:36.882Z,78.5
2023-04-27T18:47:36.846Z,80.5
2023-04-27T18:52:37.016Z,81
2023-04-27T18:57:36.962Z,80.5
2023-04-27T19:02:36.970Z,79
2023-04-27T19:07:36.918Z,79.5
2023-04-27T19:12:36.874Z,81
2023-04-27T19:17:36.763Z,85.5
2023-04-27T19:22:36.690Z,88.5
2023-04-27T19:27:36.683Z,91.5
2023-04-27T19:32:36.652Z,94
2023-04-27T19:37:36.628Z,95
2023-04-27T19:42:36.608Z,98.5
2023-04-27T19:47:36.592Z,100
2023-04-27T19:52:36.572Z,100
2023-04-27T19:57:36.549Z,100
2023-04-27T20:02:36.534Z,100
2023-04-27T20:07:36.509Z,100
2023-04-27T20:12:36.496Z,100
2023-04-27T20:17:36.463Z,100
2023-04-27T20:22:36.439Z,100
2023-04-27T20:27:36.410Z,100
2023-04-27T20:32:36.391Z,100
2023-04-27T20:37:36.371Z,100
2023-04-27T20:42:36.364Z,100
2023-04-27T20:47:36.337Z,100
2023-04-27T20:52:36.343Z,100
2023-04-27T20:57:36.300Z,100
2023-04-27T21:02:36.267Z,100
2023-04-27T21:07:36.260Z,100
2023-04-27T21:12:36.241Z,100
2023-04-27T21:17:36.232Z,100
2023-04-27T21:22:36.191Z,100
2023-04-27T21:27:36.175Z,100
2023-04-27T21:32:36.153Z,100
2023-04-27T21:37:36.130Z,100
2023-04-27T21:42:36.118Z,100
2023-04-27T21:47:36.142Z,100
2023-04-27T21:52:36.067Z,100
2023-04-27T21:57:36.049Z,100
2023-04-27T22:02:36.032Z,100
2023-04-27T22:07:36.006Z,100
2023-04-27T22:12:35.977Z,100
2023-04-27T22:17:35.969Z,100
2023-04-27T22:22:35.952Z,100
2023-04-27T22:27:35.922Z,100
2023-04-27T22:32:35.914Z,100
2023-04-27T22:37:35.886Z,100
2023-04-27T22:42:35.863Z,100
2023-04-27T22:47:35.846Z,100
2023-04-27T22:52:35.819Z,100
2023-04-27T22:57:35.804Z,100
2023-04-27T23:02:35.774Z,100
2023-04-27T23:07:35.764Z,100
2023-04-27T23:12:35.755Z,100
2023-04-27T23:17:35.718Z,100
2023-04-27T23:22:35.696Z,100
2023-04-27T23:27:35.690Z,100
2023-04-27T23:32:35.663Z,100
2023-04-27T23:37:35.658Z,100
2023-04-27T23:42:35.619Z,100
2023-04-27T23:47:35.610Z,100
2023-04-27T23:52:35.586Z,100
2023-04-27T23:57:35.556Z,100
